createdAt,value
2022-12-31T00:00:51.890Z,5.06
2022-12-31T00:03:28.513Z,5.01
2022-12-31T00:05:57.253Z,4.97
2022-12-31T00:08:25.534Z,4.95
2022-12-31T00:10:53.606Z,4.94
2022-12-31T00:13:21.872Z,4.96
2022-12-31T00:15:49.742Z,4.99
2022-12-31T00:18:17.611Z,5.01
2022-12-31T00:20:45.481Z,5.03
2022-12-31T00:23:13.352Z,5.07
2022-12-31T00:25:41.196Z,5.12
2022-12-31T00:28:09.151Z,5.20
2022-12-31T00:30:37.804Z,5.28
2022-12-31T00:33:05.739Z,5.35
2022-12-31T00:35:34.933Z,5.42
2022-12-31T00:38:02.903Z,5.46
2022-12-31T00:40:30.879Z,5.50
2022-12-31T00:42:58.843Z,5.56
2022-12-31T00:45:26.819Z,5.61
2022-12-31T00:47:54.619Z,5.63
2022-12-31T00:50:22.548Z,5.60
2022-12-31T00:52:50.417Z,5.60
2022-12-31T00:55:18.395Z,5.64
2022-12-31T00:57:46.356Z,5.66
2022-12-31T01:00:14.785Z,5.64
2022-12-31T01:02:42.686Z,5.60
2022-12-31T01:05:10.775Z,5.56
2022-12-31T01:07:38.948Z,5.53
2022-12-31T01:10:07.126Z,5.50
2022-12-31T01:12:34.969Z,5.49
2022-12-31T01:15:03.167Z,5.46
2022-12-31T01:17:31.244Z,5.40
2022-12-31T01:19:59.310Z,5.34
2022-12-31T01:22:27.417Z,5.28
2022-12-31T01:24:55.350Z,5.20
2022-12-31T01:27:23.194Z,5.15
2022-12-31T01:29:51.180Z,5.09
2022-12-31T01:32:19.155Z,5.02
2022-12-31T01:34:47.645Z,4.95
2022-12-31T01:37:15.611Z,4.86
2022-12-31T01:39:43.362Z,4.80
2022-12-31T01:42:12.084Z,4.75
2022-12-31T01:44:40.028Z,4.70
2022-12-31T01:47:13.726Z,4.66
2022-12-31T01:49:41.592Z,4.61
2022-12-31T01:52:15.738Z,4.55
2022-12-31T01:54:55.354Z,4.47
2022-12-31T01:57:24.143Z,4.38
2022-12-31T01:59:53.066Z,4.33
2022-12-31T02:02:21.268Z,4.29
2022-12-31T02:04:51.144Z,4.24
2022-12-31T02:07:19.092Z,4.21
2022-12-31T02:09:47.169Z,4.16
2022-12-31T02:12:15.436Z,4.12
2022-12-31T02:14:48.324Z,4.07
2022-12-31T02:17:35.241Z,4.01
2022-12-31T02:20:21.964Z,3.94
2022-12-31T02:22:49.920Z,3.90
2022-12-31T02:25:36.414Z,3.84
2022-12-31T02:28:13.335Z,3.77
2022-12-31T02:30:42.296Z,3.69
2022-12-31T02:33:24.496Z,3.64
2022-12-31T02:36:01.070Z,3.60
2022-12-31T02:38:31.617Z,3.56
2022-12-31T02:41:00.095Z,3.54
2022-12-31T02:43:28.499Z,3.49
2022-12-31T02:46:13.852Z,3.44
2022-12-31T02:48:44.459Z,3.40
2022-12-31T02:51:15.506Z,3.38
2022-12-31T02:53:43.322Z,3.35
2022-12-31T02:56:22.716Z,3.32
2022-12-31T02:59:09.017Z,3.30
2022-12-31T03:01:58.542Z,3.30
2022-12-31T03:04:33.076Z,3.27
2022-12-31T03:07:21.351Z,3.26
2022-12-31T03:09:49.798Z,3.26
2022-12-31T03:12:37.778Z,3.27
2022-12-31T03:15:06.884Z,3.27
2022-12-31T03:17:34.936Z,3.30
2022-12-31T03:20:21.335Z,3.32
2022-12-31T03:22:49.309Z,3.36
2022-12-31T03:25:38.067Z,3.38
2022-12-31T03:28:08.037Z,3.45
2022-12-31T03:30:37.155Z,3.52
2022-12-31T03:33:05.385Z,3.56
2022-12-31T03:35:34.076Z,3.62
2022-12-31T03:38:02.314Z,3.64
2022-12-31T03:40:30.703Z,3.66
2022-12-31T03:42:58.674Z,3.66
2022-12-31T03:45:26.578Z,3.64
2022-12-31T03:47:54.498Z,3.62
2022-12-31T03:50:22.368Z,3.65
2022-12-31T03:52:50.347Z,3.65
2022-12-31T03:55:18.413Z,3.58
2022-12-31T03:57:46.484Z,3.50
2022-12-31T04:00:15.407Z,3.44
2022-12-31T04:02:43.396Z,3.39
2022-12-31T04:05:12.132Z,3.35
2022-12-31T04:07:40.414Z,3.26
2022-12-31T04:10:09.785Z,3.17
2022-12-31T04:12:37.779Z,3.09
2022-12-31T04:15:06.569Z,3.01
2022-12-31T04:17:34.538Z,2.92
2022-12-31T04:20:04.355Z,2.85
2022-12-31T04:22:32.224Z,2.80
2022-12-31T04:25:00.015Z,2.72
2022-12-31T04:27:28.052Z,2.68
2022-12-31T04:29:56.029Z,2.62
2022-12-31T04:32:25.225Z,2.57
2022-12-31T04:34:53.515Z,2.54
2022-12-31T04:37:21.371Z,2.51
2022-12-31T04:39:49.231Z,2.48
2022-12-31T04:42:17.115Z,2.45
2022-12-31T04:44:45.081Z,2.39
2022-12-31T04:47:12.963Z,2.35
2022-12-31T04:49:41.931Z,2.28
2022-12-31T04:52:09.796Z,2.22
2022-12-31T04:54:37.669Z,2.19
2022-12-31T04:57:06.560Z,2.18
2022-12-31T04:59:34.738Z,2.15
2022-12-31T05:02:03.033Z,2.12
2022-12-31T05:04:31.194Z,2.08
2022-12-31T05:06:59.165Z,2.07
2022-12-31T05:09:28.449Z,2.05
2022-12-31T05:11:56.525Z,2.05
2022-12-31T05:14:24.492Z,2.05
2022-12-31T05:16:52.497Z,2.05
2022-12-31T05:19:20.742Z,2.04
2022-12-31T05:22:08.643Z,2.05
2022-12-31T05:24:36.548Z,2.04
2022-12-31T05:27:04.721Z,2.01
2022-12-31T05:29:32.699Z,2.00
2022-12-31T05:32:00.662Z,1.99
2022-12-31T05:34:28.454Z,1.97
2022-12-31T05:36:56.387Z,1.96
2022-12-31T05:39:24.364Z,1.92
2022-12-31T05:41:52.539Z,1.92
2022-12-31T05:44:20.504Z,1.90
2022-12-31T05:46:48.680Z,1.86
2022-12-31T05:49:17.469Z,1.85
2022-12-31T05:51:46.262Z,1.84
2022-12-31T05:54:14.226Z,1.85
2022-12-31T05:56:42.037Z,1.85
2022-12-31T05:59:09.828Z,1.87
2022-12-31T06:01:37.763Z,1.88
2022-12-31T06:04:06.193Z,1.90
2022-12-31T06:06:34.281Z,1.91
2022-12-31T06:09:02.143Z,1.91
2022-12-31T06:11:30.006Z,1.92
2022-12-31T06:13:58.593Z,1.92
2022-12-31T06:16:26.989Z,1.92
2022-12-31T06:18:55.054Z,1.90
2022-12-31T06:21:23.238Z,1.87
2022-12-31T06:23:51.799Z,1.86
2022-12-31T06:26:19.875Z,1.85
2022-12-31T06:28:47.753Z,1.83
2022-12-31T06:31:16.193Z,1.83
2022-12-31T06:33:44.149Z,1.86
2022-12-31T06:36:13.085Z,1.90
2022-12-31T06:38:41.870Z,1.95
2022-12-31T06:41:11.280Z,2.02
2022-12-31T06:43:40.677Z,2.12
2022-12-31T06:46:10.234Z,2.22
2022-12-31T06:48:38.255Z,2.35
2022-12-31T06:51:10.617Z,2.50
2022-12-31T06:53:41.881Z,2.67
2022-12-31T06:56:14.344Z,2.84
2022-12-31T06:58:42.631Z,2.95
2022-12-31T07:01:34.615Z,3.04
2022-12-31T07:04:18.258Z,3.13
2022-12-31T07:06:52.063Z,3.20
2022-12-31T07:09:26.026Z,3.25
2022-12-31T07:12:12.867Z,3.32
2022-12-31T07:14:49.613Z,3.29
2022-12-31T07:17:20.344Z,3.34
2022-12-31T07:20:03.882Z,3.40
2022-12-31T07:22:32.145Z,3.54
2022-12-31T07:25:00.541Z,3.65
2022-12-31T07:27:47.431Z,3.73
2022-12-31T07:30:20.743Z,3.88
2022-12-31T07:33:07.508Z,4.20
2022-12-31T07:35:41.864Z,4.61
2022-12-31T07:38:24.973Z,4.84
2022-12-31T07:41:11.817Z,4.89
2022-12-31T07:43:52.449Z,4.97
2022-12-31T07:46:24.587Z,5.35
2022-12-31T07:48:52.860Z,5.97
2022-12-31T07:51:20.879Z,6.60
2022-12-31T07:53:48.748Z,7.22
2022-12-31T07:56:16.815Z,7.90
2022-12-31T07:58:51.036Z,8.56
2022-12-31T08:01:27.351Z,9.00
2022-12-31T08:04:01.889Z,9.18
2022-12-31T08:06:35.942Z,9.17
2022-12-31T08:09:08.415Z,9.23
2022-12-31T08:11:41.328Z,9.15
2022-12-31T08:14:12.144Z,8.93
2022-12-31T08:16:40.455Z,8.66
2022-12-31T08:19:17.022Z,8.39
2022-12-31T08:22:03.562Z,8.16
2022-12-31T08:24:38.121Z,7.97
2022-12-31T08:27:13.744Z,7.74
2022-12-31T08:30:04.935Z,7.49
2022-12-31T08:32:42.265Z,7.30
2022-12-31T08:35:16.172Z,7.16
2022-12-31T08:37:48.038Z,7.10
2022-12-31T08:40:31.163Z,7.10
2022-12-31T08:43:11.247Z,7.10
2022-12-31T08:45:42.071Z,7.02
2022-12-31T08:48:19.265Z,7.02
2022-12-31T08:50:47.597Z,7.10
2022-12-31T08:53:15.709Z,7.18
2022-12-31T08:55:44.781Z,7.25
2022-12-31T08:58:24.828Z,7.28
2022-12-31T09:00:55.484Z,7.29
2022-12-31T09:03:23.742Z,7.29
2022-12-31T09:05:53.263Z,7.31
2022-12-31T09:08:33.402Z,7.38
2022-12-31T09:11:11.815Z,7.42
2022-12-31T09:13:48.901Z,7.45
2022-12-31T09:16:32.427Z,7.64
2022-12-31T09:19:00.509Z,8.46
2022-12-31T09:21:28.672Z,9.44
2022-12-31T09:23:56.846Z,10.30
2022-12-31T09:26:34.456Z,11.08
2022-12-31T09:29:20.958Z,12.07
2022-12-31T09:32:07.664Z,13.23
2022-12-31T09:34:47.094Z,14.26
2022-12-31T09:37:35.252Z,15.23
2022-12-31T09:40:29.627Z,16.18
2022-12-31T09:43:00.262Z,17.11
2022-12-31T09:45:34.448Z,17.98
2022-12-31T09:48:05.252Z,18.79
2022-12-31T09:50:35.953Z,19.40
2022-12-31T09:53:06.780Z,19.75
2022-12-31T09:55:34.748Z,19.92
2022-12-31T09:58:18.206Z,20.26
2022-12-31T10:00:56.298Z,20.62
2022-12-31T10:03:26.037Z,20.95
2022-12-31T10:05:54.075Z,20.99
2022-12-31T10:08:40.265Z,21.07
2022-12-31T10:11:17.200Z,20.90
2022-12-31T10:13:59.780Z,20.11
2022-12-31T10:17:02.993Z,19.78
2022-12-31T10:19:45.983Z,19.72
2022-12-31T10:22:13.847Z,19.39
2022-12-31T10:25:20.129Z,19.06
2022-12-31T10:27:51.775Z,18.52
2022-12-31T10:30:21.504Z,17.94
2022-12-31T10:32:56.419Z,17.42
2022-12-31T10:35:29.416Z,16.93
2022-12-31T10:38:05.222Z,16.49
2022-12-31T10:40:39.266Z,16.01
2022-12-31T10:43:13.384Z,15.54
2022-12-31T10:45:59.902Z,15.17
2022-12-31T10:48:27.848Z,14.80
2022-12-31T10:50:58.493Z,14.45
2022-12-31T10:53:26.646Z,14.15
2022-12-31T10:56:08.760Z,13.85
2022-12-31T10:58:58.621Z,13.52
2022-12-31T11:01:47.018Z,13.16
2022-12-31T11:04:15.053Z,12.81
2022-12-31T11:07:01.668Z,12.52
2022-12-31T11:09:47.965Z,12.28
2022-12-31T11:12:30.991Z,12.00
2022-12-31T11:15:24.689Z,11.76
2022-12-31T11:17:55.902Z,11.50
2022-12-31T11:20:42.731Z,11.32
2022-12-31T11:23:16.830Z,11.20
2022-12-31T11:25:47.976Z,11.06
2022-12-31T11:28:36.120Z,10.92
2022-12-31T11:31:13.181Z,10.75
2022-12-31T11:33:59.906Z,10.58
2022-12-31T11:36:40.163Z,10.46
2022-12-31T11:39:08.132Z,10.35
2022-12-31T11:41:44.813Z,10.27
2022-12-31T11:44:30.294Z,10.22
2022-12-31T11:46:58.154Z,10.18
2022-12-31T11:49:44.973Z,10.15
2022-12-31T11:52:33.521Z,10.13
2022-12-31T11:55:13.985Z,10.12
2022-12-31T11:57:46.770Z,10.09
2022-12-31T12:00:19.102Z,9.99
2022-12-31T12:02:49.303Z,9.89
2022-12-31T12:05:20.345Z,9.84
2022-12-31T12:07:49.402Z,9.87
2022-12-31T12:10:41.014Z,9.93
2022-12-31T12:13:11.763Z,10.00
2022-12-31T12:15:42.494Z,10.08
2022-12-31T12:18:23.662Z,10.12
2022-12-31T12:20:51.651Z,10.13
2022-12-31T12:23:26.216Z,10.13
2022-12-31T12:25:54.132Z,10.15
2022-12-31T12:28:24.039Z,10.18
2022-12-31T12:31:14.698Z,10.31
2022-12-31T12:33:46.000Z,10.55
2022-12-31T12:36:15.804Z,11.27
2022-12-31T12:38:44.180Z,12.63
2022-12-31T12:41:25.325Z,13.78
2022-12-31T12:44:03.678Z,14.87
2022-12-31T12:46:33.502Z,16.20
2022-12-31T12:49:01.780Z,17.33
2022-12-31T12:51:39.152Z,18.44
2022-12-31T12:54:07.037Z,19.49
2022-12-31T12:56:47.492Z,20.32
2022-12-31T12:59:27.840Z,21.12
2022-12-31T13:02:13.971Z,21.79
2022-12-31T13:04:47.227Z,22.40
2022-12-31T13:07:30.668Z,23.01
2022-12-31T13:10:01.702Z,23.17
2022-12-31T13:12:49.230Z,22.83
2022-12-31T13:15:26.516Z,22.20
2022-12-31T13:17:59.972Z,21.41
2022-12-31T13:20:38.745Z,20.70
2022-12-31T13:23:25.556Z,20.01
2022-12-31T13:25:53.521Z,19.27
2022-12-31T13:28:23.031Z,18.59
2022-12-31T13:30:53.565Z,17.97
2022-12-31T13:33:27.152Z,17.42
2022-12-31T13:35:59.855Z,16.95
2022-12-31T13:38:34.945Z,16.49
2022-12-31T13:41:22.982Z,16.00
2022-12-31T13:44:14.545Z,15.65
2022-12-31T13:46:51.621Z,15.33
2022-12-31T13:49:19.491Z,14.94
2022-12-31T13:51:52.325Z,14.59
2022-12-31T13:54:20.243Z,14.23
2022-12-31T13:56:49.743Z,13.95
2022-12-31T13:59:29.113Z,13.77
2022-12-31T14:02:15.875Z,13.55
2022-12-31T14:04:49.181Z,13.32
2022-12-31T14:07:20.534Z,13.13
2022-12-31T14:09:48.612Z,12.93
2022-12-31T14:12:18.020Z,12.78
2022-12-31T14:14:45.873Z,12.60
2022-12-31T14:17:13.741Z,12.40
2022-12-31T14:19:47.935Z,12.22
2022-12-31T14:22:18.845Z,12.04
2022-12-31T14:24:49.999Z,11.87
2022-12-31T14:27:29.632Z,11.75
2022-12-31T14:30:06.049Z,11.60
2022-12-31T14:32:43.133Z,11.45
2022-12-31T14:35:20.063Z,11.28
2022-12-31T14:37:54.075Z,11.11
2022-12-31T14:40:28.917Z,10.96
2022-12-31T14:42:56.824Z,10.81
2022-12-31T14:45:34.955Z,10.67
2022-12-31T14:48:10.670Z,10.50
2022-12-31T14:50:38.956Z,10.31
2022-12-31T14:53:18.589Z,10.16
2022-12-31T14:55:56.916Z,10.03
2022-12-31T14:58:38.511Z,9.90
2022-12-31T15:01:15.431Z,9.80
2022-12-31T15:03:46.253Z,9.70
2022-12-31T15:06:14.201Z,9.61
2022-12-31T15:09:07.697Z,9.52
2022-12-31T15:11:54.874Z,9.45
2022-12-31T15:14:41.486Z,9.37
2022-12-31T15:17:31.878Z,9.28
2022-12-31T15:20:29.620Z,9.19
2022-12-31T15:22:57.613Z,9.10
2022-12-31T15:25:38.631Z,9.04
2022-12-31T15:28:21.304Z,9.00
2022-12-31T15:30:50.163Z,8.95
2022-12-31T15:33:21.232Z,8.89
2022-12-31T15:35:54.132Z,8.83
2022-12-31T15:38:32.950Z,8.76
2022-12-31T15:41:01.571Z,8.70
2022-12-31T15:43:34.019Z,8.62
2022-12-31T15:46:02.531Z,8.53
2022-12-31T15:48:40.795Z,8.47
2022-12-31T15:51:15.016Z,8.41
2022-12-31T15:53:43.772Z,8.36
2022-12-31T15:56:18.021Z,8.29
2022-12-31T15:58:47.429Z,8.22
2022-12-31T16:01:15.611Z,8.16
2022-12-31T16:03:58.215Z,8.11
2022-12-31T16:06:28.635Z,8.07
2022-12-31T16:08:56.916Z,8.03
2022-12-31T16:11:27.399Z,8.00
2022-12-31T16:13:55.715Z,7.99
2022-12-31T16:16:28.350Z,7.98
2022-12-31T16:18:57.088Z,7.95
2022-12-31T16:21:25.106Z,7.93
2022-12-31T16:23:54.271Z,7.91
2022-12-31T16:26:24.584Z,7.87
2022-12-31T16:28:52.547Z,7.84
2022-12-31T16:31:21.079Z,7.81
2022-12-31T16:33:49.105Z,7.79
2022-12-31T16:36:21.856Z,7.75
2022-12-31T16:38:50.581Z,7.72
2022-12-31T16:41:19.665Z,7.68
2022-12-31T16:43:49.165Z,7.64
2022-12-31T16:46:20.222Z,7.60
2022-12-31T16:48:58.335Z,7.56
2022-12-31T16:51:29.462Z,7.54
2022-12-31T16:53:58.097Z,7.54
2022-12-31T16:56:28.787Z,7.54
2022-12-31T16:59:00.549Z,7.55
2022-12-31T17:01:31.580Z,7.57
2022-12-31T17:04:01.697Z,7.59
2022-12-31T17:06:33.476Z,7.61
2022-12-31T17:09:04.805Z,7.67
2022-12-31T17:11:43.738Z,7.72
2022-12-31T17:14:11.699Z,7.75
2022-12-31T17:17:03.225Z,7.79
2022-12-31T17:19:40.519Z,7.83
2022-12-31T17:22:35.735Z,7.91
2022-12-31T17:25:14.221Z,8.02
2022-12-31T17:27:52.150Z,8.13
2022-12-31T17:30:21.647Z,8.20
2022-12-31T17:32:54.121Z,8.22
2022-12-31T17:35:30.278Z,8.18
2022-12-31T17:38:16.785Z,8.15
2022-12-31T17:40:53.006Z,8.14
2022-12-31T17:43:22.768Z,8.12
2022-12-31T17:45:51.882Z,8.12
2022-12-31T17:48:20.750Z,8.11
2022-12-31T17:50:48.698Z,8.07
2022-12-31T17:53:17.202Z,8.04
2022-12-31T17:55:47.417Z,8.02
2022-12-31T17:58:35.570Z,7.95
2022-12-31T18:01:07.632Z,7.85
2022-12-31T18:03:36.111Z,7.77
2022-12-31T18:06:05.623Z,7.70
2022-12-31T18:08:33.584Z,7.64
2022-12-31T18:11:01.679Z,7.58
2022-12-31T18:13:30.552Z,7.54
2022-12-31T18:15:58.682Z,7.51
2022-12-31T18:18:28.222Z,7.49
2022-12-31T18:21:00.328Z,7.48
2022-12-31T18:23:30.853Z,7.48
2022-12-31T18:25:58.791Z,7.45
2022-12-31T18:28:26.674Z,7.43
2022-12-31T18:30:54.938Z,7.40
2022-12-31T18:33:24.132Z,7.35
2022-12-31T18:36:09.681Z,7.33
2022-12-31T18:38:39.446Z,7.31
2022-12-31T18:41:11.285Z,7.30
2022-12-31T18:43:39.258Z,7.31
2022-12-31T18:46:09.910Z,7.30
2022-12-31T18:48:37.700Z,7.29
2022-12-31T18:51:05.700Z,7.29
2022-12-31T18:53:33.588Z,7.28
2022-12-31T18:56:01.460Z,7.27
2022-12-31T18:58:29.226Z,7.25
2022-12-31T19:00:57.109Z,7.24
2022-12-31T19:03:27.496Z,7.23
2022-12-31T19:05:55.690Z,7.22
2022-12-31T19:08:23.701Z,7.22
2022-12-31T19:10:52.258Z,7.22
2022-12-31T19:13:21.034Z,7.21
2022-12-31T19:15:50.949Z,7.20
2022-12-31T19:18:19.348Z,7.19
2022-12-31T19:20:47.509Z,7.20
2022-12-31T19:23:18.017Z,7.20
2022-12-31T19:25:47.224Z,7.19
2022-12-31T19:28:22.670Z,7.17
2022-12-31T19:30:51.077Z,7.15
2022-12-31T19:33:19.277Z,7.13
2022-12-31T19:35:47.611Z,7.13
2022-12-31T19:38:20.609Z,7.12
2022-12-31T19:40:49.077Z,7.12
2022-12-31T19:43:18.229Z,7.12
2022-12-31T19:45:46.617Z,7.11
2022-12-31T19:48:16.462Z,7.10
2022-12-31T19:50:48.430Z,7.10
2022-12-31T19:53:18.043Z,7.10
2022-12-31T19:55:45.998Z,7.09
2022-12-31T19:58:25.747Z,7.08
2022-12-31T20:01:01.705Z,7.08
2022-12-31T20:03:32.867Z,7.08
2022-12-31T20:06:08.515Z,7.08
2022-12-31T20:08:37.498Z,7.09
2022-12-31T20:11:09.365Z,7.08
2022-12-31T20:13:37.769Z,7.06
2022-12-31T20:16:09.873Z,7.03
2022-12-31T20:18:38.394Z,7.03
2022-12-31T20:21:13.442Z,7.05
2022-12-31T20:23:41.507Z,7.05
2022-12-31T20:26:10.374Z,7.07
2022-12-31T20:28:38.349Z,7.11
2022-12-31T20:31:11.091Z,7.16
2022-12-31T20:33:39.009Z,7.23
2022-12-31T20:36:08.293Z,7.30
2022-12-31T20:38:36.162Z,7.39
2022-12-31T20:41:04.396Z,7.49
2022-12-31T20:43:35.914Z,7.59
2022-12-31T20:46:14.098Z,7.67
2022-12-31T20:48:43.956Z,7.76
2022-12-31T20:51:13.022Z,7.83
2022-12-31T20:53:45.306Z,7.82
2022-12-31T20:56:13.153Z,7.82
2022-12-31T20:58:41.125Z,7.82
2022-12-31T21:01:10.102Z,7.87
2022-12-31T21:04:04.933Z,7.91
2022-12-31T21:06:27.967Z,7.93
2022-12-31T21:08:56.651Z,7.96
2022-12-31T21:11:43.364Z,7.93
2022-12-31T21:14:11.225Z,7.88
2022-12-31T21:16:39.420Z,7.85
2022-12-31T21:19:07.471Z,7.81
2022-12-31T21:21:35.551Z,7.76
2022-12-31T21:24:03.730Z,7.70
2022-12-31T21:26:31.939Z,7.65
2022-12-31T21:29:00.085Z,7.60
2022-12-31T21:31:28.263Z,7.54
2022-12-31T21:33:56.308Z,7.48
2022-12-31T21:36:24.183Z,7.44
2022-12-31T21:38:52.146Z,7.41
2022-12-31T21:41:38.709Z,7.38
2022-12-31T21:44:06.931Z,7.36
2022-12-31T21:46:35.013Z,7.34
2022-12-31T21:49:03.037Z,7.32
2022-12-31T21:51:31.058Z,7.28
2022-12-31T21:53:59.109Z,7.23
2022-12-31T21:56:27.081Z,7.20
2022-12-31T21:59:15.041Z,7.18
2022-12-31T22:02:01.886Z,7.16
2022-12-31T22:05:01.339Z,7.13
2022-12-31T22:07:17.948Z,7.11
2022-12-31T22:09:45.918Z,7.08
2022-12-31T22:12:13.894Z,7.06
2022-12-31T22:15:15.973Z,7.05
2022-12-31T22:17:29.689Z,7.04
2022-12-31T22:20:28.273Z,7.04
2022-12-31T22:22:45.392Z,7.05
2022-12-31T22:25:13.461Z,7.05
2022-12-31T22:27:41.446Z,7.05
2022-12-31T22:30:09.606Z,7.05
2022-12-31T22:32:37.574Z,7.04
2022-12-31T22:35:05.624Z,7.03
2022-12-31T22:37:56.173Z,7.02
2022-12-31T22:40:21.648Z,7.02
2022-12-31T22:42:49.630Z,7.02
2022-12-31T22:45:17.806Z,7.02
2022-12-31T22:47:45.723Z,7.02
2022-12-31T22:50:13.644Z,7.02
2022-12-31T22:52:41.614Z,7.01
2022-12-31T22:55:10.091Z,6.99
2022-12-31T22:57:38.065Z,6.96
2022-12-31T23:00:10.057Z,6.95
2022-12-31T23:02:41.677Z,6.96
2022-12-31T23:05:15.686Z,6.98
2022-12-31T23:07:44.175Z,7.00
2022-12-31T23:10:30.676Z,7.01
2022-12-31T23:12:58.854Z,7.04
2022-12-31T23:15:45.173Z,7.09
2022-12-31T23:18:31.974Z,7.13
2022-12-31T23:21:18.670Z,7.16
2022-12-31T23:23:46.531Z,7.18
2022-12-31T23:26:14.522Z,7.19
2022-12-31T23:28:42.477Z,7.18
2022-12-31T23:31:10.666Z,7.17
2022-12-31T23:33:38.631Z,7.16
2022-12-31T23:36:07.308Z,7.21
2022-12-31T23:38:35.271Z,7.26
2022-12-31T23:41:16.798Z,7.35
2022-12-31T23:43:45.339Z,7.44
2022-12-31T23:46:13.856Z,7.49
2022-12-31T23:48:42.005Z,7.52
2022-12-31T23:51:09.868Z,7.54
2022-12-31T23:53:38.870Z,7.59
2022-12-31T23:56:19.162Z,7.61
2022-12-31T23:58:55.493Z,7.61
